createdAt,value
2017-04-07T00:00:13.490Z,35.28
2017-04-07T00:01:14.061Z,35.38
2017-04-07T00:02:14.632Z,35.47
2017-04-07T00:03:15.234Z,35.19
2017-04-07T00:04:15.775Z,35.28
2017-04-07T00:05:16.347Z,35.19
2017-04-07T00:06:16.935Z,35.28
2017-04-07T00:07:17.508Z,35.38
2017-04-07T00:08:18.080Z,35.47
2017-04-07T00:09:18.651Z,35.38
2017-04-07T00:10:19.221Z,35.19
2017-04-07T00:11:19.810Z,35.10
2017-04-07T00:12:20.383Z,35.19
2017-04-07T00:13:20.956Z,35.76
2017-04-07T00:14:21.526Z,35.95
2017-04-07T00:15:22.097Z,35.66
2017-04-07T00:16:22.672Z,35.86
2017-04-07T00:17:23.444Z,35.76
2017-04-07T00:18:24.016Z,35.76
2017-04-07T00:19:24.586Z,35.66
2017-04-07T00:20:25.159Z,35.66
2017-04-07T00:21:25.732Z,35.76
2017-04-07T00:22:26.302Z,35.57
2017-04-07T00:23:26.875Z,35.57
2017-04-07T00:24:27.447Z,35.57
2017-04-07T00:25:28.019Z,35.66
2017-04-07T00:26:28.591Z,35.66
2017-04-07T00:27:29.163Z,35.86
2017-04-07T00:28:29.735Z,35.86
2017-04-07T00:29:30.308Z,35.95
2017-04-07T00:30:30.880Z,35.86
2017-04-07T00:31:31.452Z,35.95
2017-04-07T00:32:32.023Z,36.05
2017-04-07T00:33:32.596Z,35.95
2017-04-07T00:34:33.169Z,35.95
2017-04-07T00:35:33.740Z,35.86
2017-04-07T00:36:34.311Z,35.95
2017-04-07T00:37:34.886Z,35.95
2017-04-07T00:38:35.457Z,35.95
2017-04-07T00:39:36.027Z,35.66
2017-04-07T00:40:36.600Z,35.66
2017-04-07T00:41:37.170Z,35.47
2017-04-07T00:42:37.744Z,35.76
2017-04-07T00:43:38.314Z,35.76
2017-04-07T00:44:38.886Z,35.76
2017-04-07T00:45:39.459Z,35.57
2017-04-07T00:46:40.047Z,35.66
2017-04-07T00:47:40.618Z,35.66
2017-04-07T00:48:41.189Z,35.66
2017-04-07T00:49:41.761Z,35.76
2017-04-07T00:50:42.333Z,35.66
2017-04-07T00:51:42.908Z,35.76
2017-04-07T00:52:43.478Z,35.66
2017-04-07T00:53:44.050Z,35.66
2017-04-07T00:54:44.624Z,35.66
2017-04-07T00:55:45.195Z,35.66
2017-04-07T00:56:45.766Z,35.66
2017-04-07T00:57:46.539Z,35.47
2017-04-07T00:58:47.110Z,35.57
2017-04-07T00:59:47.683Z,35.66
2017-04-07T01:00:48.272Z,35.66
2017-04-07T01:01:48.843Z,35.47
2017-04-07T01:02:49.430Z,35.86
2017-04-07T01:03:50.002Z,35.86
2017-04-07T01:04:50.574Z,35.76
2017-04-07T01:05:51.145Z,36.24
2017-04-07T01:06:51.718Z,36.14
2017-04-07T01:07:52.289Z,36.14
2017-04-07T01:08:52.861Z,35.86
2017-04-07T01:09:53.434Z,36.24
2017-04-07T01:10:54.005Z,36.05
2017-04-07T01:11:54.577Z,36.24
2017-04-07T01:12:55.150Z,36.33
2017-04-07T01:13:55.722Z,36.81
2017-04-07T01:14:56.294Z,36.81
2017-04-07T01:15:56.865Z,36.62
2017-04-07T01:16:57.437Z,36.62
2017-04-07T01:17:58.226Z,36.52
2017-04-07T01:18:58.798Z,36.43
2017-04-07T01:19:59.369Z,36.62
2017-04-07T01:20:59.943Z,36.62
2017-04-07T01:22:00.514Z,36.44
2017-04-07T01:23:01.089Z,36.64
2017-04-07T01:24:01.659Z,36.44
2017-04-07T01:25:02.229Z,36.73
2017-04-07T01:26:02.801Z,36.44
2017-04-07T01:27:03.374Z,36.64
2017-04-07T01:28:03.946Z,36.54
2017-04-07T01:29:04.518Z,36.54
2017-04-07T01:30:05.089Z,36.64
2017-04-07T01:31:05.662Z,36.54
2017-04-07T01:32:06.234Z,36.73
2017-04-07T01:33:06.806Z,36.73
2017-04-07T01:34:07.382Z,36.92
2017-04-07T01:35:07.951Z,37.12
2017-04-07T01:36:08.541Z,37.21
2017-04-07T01:37:09.113Z,37.12
2017-04-07T01:38:09.885Z,37.21
2017-04-07T01:39:10.457Z,37.30
2017-04-07T01:40:11.031Z,37.23
2017-04-07T01:41:11.603Z,37.40
2017-04-07T01:42:12.175Z,37.32
2017-04-07T01:43:12.748Z,37.51
2017-04-07T01:44:13.321Z,37.90
2017-04-07T01:45:13.892Z,37.78
2017-04-07T01:46:14.466Z,37.90
2017-04-07T01:47:15.038Z,37.90
2017-04-07T01:48:15.632Z,37.90
2017-04-07T01:49:16.197Z,37.90
2017-04-07T01:50:16.768Z,37.78
2017-04-07T01:51:17.346Z,37.80
2017-04-07T01:52:17.914Z,37.71
2017-04-07T01:53:18.485Z,37.71
2017-04-07T01:54:19.058Z,37.71
2017-04-07T01:55:19.633Z,37.71
2017-04-07T01:56:20.205Z,37.51
2017-04-07T01:57:20.775Z,37.51
2017-04-07T01:58:21.549Z,37.51
2017-04-07T01:59:22.121Z,37.61
2017-04-07T02:00:22.696Z,37.51
2017-04-07T02:01:23.269Z,37.61
2017-04-07T02:02:23.858Z,37.61
2017-04-07T02:03:24.430Z,37.61
2017-04-07T02:04:25.002Z,37.90
2017-04-07T02:05:25.575Z,37.51
2017-04-07T02:06:26.147Z,37.90
2017-04-07T02:07:26.718Z,37.80
2017-04-07T02:08:27.292Z,37.99
2017-04-07T02:09:27.865Z,38.09
2017-04-07T02:10:28.436Z,37.99
2017-04-07T02:11:29.010Z,37.80
2017-04-07T02:12:29.584Z,38.18
2017-04-07T02:13:30.155Z,37.80
2017-04-07T02:14:30.727Z,37.90
2017-04-07T02:15:31.298Z,38.09
2017-04-07T02:16:31.871Z,37.90
2017-04-07T02:17:32.443Z,38.09
2017-04-07T02:18:33.216Z,38.18
2017-04-07T02:19:33.789Z,37.99
2017-04-07T02:20:34.360Z,38.18
2017-04-07T02:21:34.931Z,38.09
2017-04-07T02:22:35.519Z,37.99
2017-04-07T02:23:36.114Z,37.99
2017-04-07T02:24:36.681Z,37.99
2017-04-07T02:25:37.252Z,37.99
2017-04-07T02:26:37.825Z,37.99
2017-04-07T02:27:38.395Z,37.99
2017-04-07T02:28:38.967Z,38.09
2017-04-07T02:29:39.541Z,38.09
2017-04-07T02:30:40.112Z,37.90
2017-04-07T02:31:40.682Z,37.61
2017-04-07T02:32:41.253Z,37.80
2017-04-07T02:33:41.842Z,38.18
2017-04-07T02:34:42.414Z,38.18
2017-04-07T02:35:42.986Z,38.18
2017-04-07T02:36:43.559Z,37.99
2017-04-07T02:37:44.134Z,38.09
2017-04-07T02:38:44.903Z,37.99
2017-04-07T02:39:45.475Z,38.18
2017-04-07T02:40:46.052Z,38.09
2017-04-07T02:41:46.619Z,38.09
2017-04-07T02:42:47.192Z,38.18
2017-04-07T02:43:47.764Z,38.28
2017-04-07T02:44:48.353Z,38.47
2017-04-07T02:45:48.941Z,38.66
2017-04-07T02:46:49.515Z,38.66
2017-04-07T02:47:50.088Z,38.76
2017-04-07T02:48:50.860Z,38.56
2017-04-07T02:49:51.434Z,38.76
2017-04-07T02:50:52.007Z,38.56
2017-04-07T02:51:52.579Z,38.76
2017-04-07T02:52:53.153Z,38.66
2017-04-07T02:53:53.725Z,38.56
2017-04-07T02:54:54.297Z,38.76
2017-04-07T02:55:54.871Z,38.76
2017-04-07T02:56:55.462Z,38.76
2017-04-07T02:57:56.033Z,38.76
2017-04-07T02:58:56.806Z,39.04
2017-04-07T02:59:57.378Z,39.23
2017-04-07T03:00:57.951Z,39.23
2017-04-07T03:01:58.523Z,39.14
2017-04-07T03:02:59.097Z,38.95
2017-04-07T03:03:59.670Z,38.95
2017-04-07T03:05:00.241Z,39.23
2017-04-07T03:06:00.813Z,38.95
2017-04-07T03:07:01.387Z,38.95
2017-04-07T03:08:01.960Z,38.76
2017-04-07T03:09:02.529Z,38.56
2017-04-07T03:10:03.101Z,38.76
2017-04-07T03:11:03.674Z,39.14
2017-04-07T03:12:04.248Z,38.95
2017-04-07T03:13:04.820Z,38.95
2017-04-07T03:14:05.394Z,39.14
2017-04-07T03:15:05.967Z,38.85
2017-04-07T03:16:06.539Z,38.95
2017-04-07T03:17:07.110Z,38.56
2017-04-07T03:18:07.685Z,38.66
2017-04-07T03:19:08.457Z,38.76
2017-04-07T03:20:09.032Z,38.37
2017-04-07T03:21:09.603Z,38.68
2017-04-07T03:22:10.177Z,38.76
2017-04-07T03:23:10.750Z,38.66
2017-04-07T03:24:11.324Z,38.76
2017-04-07T03:25:11.914Z,38.76
2017-04-07T03:26:12.485Z,38.95
2017-04-07T03:27:13.057Z,38.95
2017-04-07T03:28:13.629Z,38.85
2017-04-07T03:29:14.203Z,38.95
2017-04-07T03:30:14.794Z,38.85
2017-04-07T03:31:15.383Z,38.58
2017-04-07T03:32:15.955Z,38.95
2017-04-07T03:33:16.527Z,38.76
2017-04-07T03:34:17.100Z,38.76
2017-04-07T03:35:17.690Z,39.14
2017-04-07T03:36:18.260Z,39.14
2017-04-07T03:37:18.833Z,39.14
2017-04-07T03:38:19.406Z,39.23
2017-04-07T03:39:20.196Z,38.95
2017-04-07T03:40:20.767Z,39.14
2017-04-07T03:41:21.342Z,39.14
2017-04-07T03:42:21.913Z,39.14
2017-04-07T03:43:22.486Z,39.14
2017-04-07T03:44:23.077Z,39.14
2017-04-07T03:45:23.647Z,39.32
2017-04-07T03:46:24.238Z,39.23
2017-04-07T03:47:24.809Z,39.42
2017-04-07T03:48:25.381Z,39.32
2017-04-07T03:49:25.952Z,39.23
2017-04-07T03:50:26.525Z,39.32
2017-04-07T03:51:27.111Z,39.23
2017-04-07T03:52:27.687Z,39.32
2017-04-07T03:53:28.259Z,39.04
2017-04-07T03:54:28.831Z,39.23
2017-04-07T03:55:29.405Z,39.04
2017-04-07T03:56:29.976Z,39.32
2017-04-07T03:57:30.548Z,39.23
2017-04-07T03:58:31.136Z,39.42
2017-04-07T03:59:31.912Z,39.42
2017-04-07T04:00:32.481Z,39.42
2017-04-07T04:01:33.055Z,39.32
2017-04-07T04:02:33.627Z,39.32
2017-04-07T04:03:34.216Z,39.32
2017-04-07T04:04:34.791Z,38.95
2017-04-07T04:05:35.379Z,39.14
2017-04-07T04:06:35.950Z,38.76
2017-04-07T04:07:36.524Z,38.95
2017-04-07T04:08:37.102Z,38.95
2017-04-07T04:09:37.690Z,39.04
2017-04-07T04:10:38.262Z,39.32
2017-04-07T04:11:38.834Z,39.04
2017-04-07T04:12:39.408Z,39.04
2017-04-07T04:13:39.979Z,39.32
2017-04-07T04:14:40.554Z,39.23
2017-04-07T04:15:41.127Z,39.04
2017-04-07T04:16:41.698Z,39.14
2017-04-07T04:17:42.270Z,39.04
2017-04-07T04:18:42.844Z,39.23
2017-04-07T04:19:43.618Z,39.25
2017-04-07T04:20:44.194Z,39.15
2017-04-07T04:21:44.766Z,39.14
2017-04-07T04:22:45.336Z,39.15
2017-04-07T04:23:45.908Z,39.35
2017-04-07T04:24:46.484Z,39.25
2017-04-07T04:25:47.054Z,39.32
2017-04-07T04:26:47.627Z,39.32
2017-04-07T04:27:48.217Z,39.25
2017-04-07T04:28:48.788Z,39.14
2017-04-07T04:29:49.363Z,39.15
2017-04-07T04:30:49.961Z,39.14
2017-04-07T04:31:50.529Z,39.32
2017-04-07T04:32:51.095Z,39.32
2017-04-07T04:33:51.671Z,39.14
2017-04-07T04:34:52.241Z,39.04
2017-04-07T04:35:52.814Z,38.95
2017-04-07T04:36:53.387Z,38.96
2017-04-07T04:37:53.959Z,38.95
2017-04-07T04:38:54.534Z,39.04
2017-04-07T04:39:55.106Z,38.78
2017-04-07T04:40:55.680Z,38.87
2017-04-07T04:41:56.263Z,39.32
2017-04-07T04:42:56.853Z,39.04
2017-04-07T04:43:57.428Z,38.87
2017-04-07T04:44:58.001Z,39.14
2017-04-07T04:45:58.574Z,39.04
2017-04-07T04:46:59.149Z,39.32
2017-04-07T04:47:59.722Z,39.23
2017-04-07T04:49:00.294Z,39.25
2017-04-07T04:50:00.868Z,38.85
2017-04-07T04:51:01.459Z,39.23
2017-04-07T04:52:02.031Z,39.06
2017-04-07T04:53:02.623Z,39.04
2017-04-07T04:54:03.196Z,39.04
2017-04-07T04:55:03.770Z,39.32
2017-04-07T04:56:04.343Z,38.95
2017-04-07T04:57:04.916Z,39.23
2017-04-07T04:58:05.491Z,39.14
2017-04-07T04:59:06.064Z,38.85
2017-04-07T05:00:06.637Z,39.06
2017-04-07T05:01:07.213Z,38.96
2017-04-07T05:02:07.819Z,39.25
2017-04-07T05:03:08.361Z,39.35
2017-04-07T05:04:08.938Z,39.35
2017-04-07T05:05:09.715Z,39.35
2017-04-07T05:06:10.289Z,39.35
2017-04-07T05:07:10.863Z,39.35
2017-04-07T05:08:11.436Z,39.35
2017-04-07T05:09:12.010Z,39.06
2017-04-07T05:10:12.581Z,39.35
2017-04-07T05:11:13.158Z,39.15
2017-04-07T05:12:13.729Z,39.15
2017-04-07T05:13:14.302Z,39.14
2017-04-07T05:14:14.877Z,39.06
2017-04-07T05:15:15.451Z,39.06
2017-04-07T05:16:16.026Z,38.96
2017-04-07T05:17:16.602Z,39.06
2017-04-07T05:18:17.180Z,39.06
2017-04-07T05:19:17.772Z,38.87
2017-04-07T05:20:18.366Z,38.96
2017-04-07T05:21:18.960Z,39.15
2017-04-07T05:22:19.535Z,38.96
2017-04-07T05:23:20.111Z,38.87
2017-04-07T05:24:20.686Z,39.06
2017-04-07T05:25:21.280Z,39.25
2017-04-07T05:26:21.856Z,39.06
2017-04-07T05:27:22.432Z,39.15
2017-04-07T05:28:23.010Z,38.78
2017-04-07T05:29:23.585Z,38.96
2017-04-07T05:30:24.161Z,39.06
2017-04-07T05:31:24.754Z,39.35
2017-04-07T05:32:25.331Z,39.35
2017-04-07T05:33:25.907Z,39.15
2017-04-07T05:34:26.483Z,39.15
2017-04-07T05:35:27.259Z,38.78
2017-04-07T05:36:27.835Z,38.96
2017-04-07T05:37:28.410Z,38.96
2017-04-07T05:38:28.987Z,38.68
2017-04-07T05:39:29.565Z,38.39
2017-04-07T05:40:30.140Z,38.58
2017-04-07T05:41:30.716Z,38.78
2017-04-07T05:42:31.292Z,38.60
2017-04-07T05:43:31.870Z,38.41
2017-04-07T05:44:32.447Z,38.79
2017-04-07T05:45:33.223Z,38.79
2017-04-07T05:46:33.816Z,38.60
2017-04-07T05:47:34.393Z,38.60
2017-04-07T05:48:34.969Z,38.79
2017-04-07T05:49:35.547Z,38.70
2017-04-07T05:50:36.124Z,38.79
2017-04-07T05:51:36.699Z,38.51
2017-04-07T05:52:37.277Z,38.70
2017-04-07T05:53:37.856Z,38.70
2017-04-07T05:54:38.434Z,38.60
2017-04-07T05:55:39.011Z,38.32
2017-04-07T05:56:39.587Z,38.70
2017-04-07T05:57:40.165Z,38.60
2017-04-07T05:58:40.743Z,38.60
2017-04-07T05:59:41.318Z,38.70
2017-04-07T06:00:41.895Z,38.60
2017-04-07T06:01:42.474Z,38.51
2017-04-07T06:02:43.049Z,38.70
2017-04-07T06:03:43.627Z,38.60
2017-04-07T06:04:44.202Z,38.41
2017-04-07T06:05:44.780Z,38.51
2017-04-07T06:06:45.357Z,38.51
2017-04-07T06:07:45.933Z,38.51
2017-04-07T06:08:46.513Z,38.41
2017-04-07T06:09:47.096Z,38.53
2017-04-07T06:10:47.668Z,38.34
2017-04-07T06:11:48.245Z,38.24
2017-04-07T06:12:48.823Z,38.43
2017-04-07T06:13:49.406Z,38.24
2017-04-07T06:14:49.997Z,38.34
2017-04-07T06:15:50.774Z,38.14
2017-04-07T06:16:51.350Z,38.14
2017-04-07T06:17:51.927Z,38.14
2017-04-07T06:18:52.503Z,38.14
2017-04-07T06:19:53.080Z,38.05
2017-04-07T06:20:53.659Z,38.05
2017-04-07T06:21:54.235Z,37.95
2017-04-07T06:22:54.812Z,37.95
2017-04-07T06:23:55.408Z,37.78
2017-04-07T06:24:55.985Z,37.66
2017-04-07T06:25:56.764Z,37.68
2017-04-07T06:26:57.340Z,37.49
2017-04-07T06:27:57.917Z,37.68
2017-04-07T06:28:58.496Z,37.59
2017-04-07T06:29:59.072Z,37.68
2017-04-07T06:30:59.649Z,37.88
2017-04-07T06:32:00.227Z,37.68
2017-04-07T06:33:00.806Z,37.59
2017-04-07T06:34:01.383Z,37.88
2017-04-07T06:35:01.981Z,37.68
2017-04-07T06:36:02.555Z,37.78
2017-04-07T06:37:03.131Z,37.68
2017-04-07T06:38:03.726Z,37.68
2017-04-07T06:39:04.304Z,37.59
2017-04-07T06:40:04.884Z,37.88
2017-04-07T06:41:05.463Z,37.88
2017-04-07T06:42:06.041Z,37.68
2017-04-07T06:43:06.618Z,37.40
2017-04-07T06:44:07.198Z,37.32
2017-04-07T06:45:07.774Z,37.40
2017-04-07T06:46:08.353Z,37.32
2017-04-07T06:47:08.930Z,37.13
2017-04-07T06:48:09.509Z,37.23
2017-04-07T06:49:10.104Z,37.04
2017-04-07T06:50:10.683Z,37.13
2017-04-07T06:51:11.261Z,37.04
2017-04-07T06:52:11.840Z,37.13
2017-04-07T06:53:12.420Z,36.84
2017-04-07T06:54:13.014Z,37.04
2017-04-07T06:55:13.616Z,37.04
2017-04-07T06:56:14.373Z,36.84
2017-04-07T06:57:14.950Z,36.84
2017-04-07T06:58:15.530Z,36.46
2017-04-07T06:59:16.108Z,36.75
2017-04-07T07:00:16.686Z,36.57
2017-04-07T07:01:17.464Z,36.96
2017-04-07T07:02:18.042Z,36.67
2017-04-07T07:03:18.639Z,36.77
2017-04-07T07:04:19.217Z,36.67
2017-04-07T07:05:19.796Z,36.86
2017-04-07T07:06:20.391Z,36.67
2017-04-07T07:07:20.969Z,36.67
2017-04-07T07:08:21.564Z,36.67
2017-04-07T07:09:22.144Z,36.67
2017-04-07T07:10:22.724Z,36.67
2017-04-07T07:11:23.302Z,36.67
2017-04-07T07:12:23.880Z,36.96
2017-04-07T07:13:24.484Z,36.98
2017-04-07T07:14:25.039Z,36.40
2017-04-07T07:15:25.618Z,36.40
2017-04-07T07:16:26.415Z,36.29
2017-04-07T07:17:26.994Z,36.11
2017-04-07T07:18:27.574Z,36.30
2017-04-07T07:19:28.151Z,36.30
2017-04-07T07:20:28.730Z,36.02
2017-04-07T07:21:29.310Z,36.11
2017-04-07T07:22:29.887Z,35.92
2017-04-07T07:23:30.466Z,35.92
2017-04-07T07:24:31.046Z,35.92
2017-04-07T07:25:31.625Z,36.21
2017-04-07T07:26:32.405Z,36.02
2017-04-07T07:27:32.983Z,36.11
2017-04-07T07:28:33.560Z,35.73
2017-04-07T07:29:34.153Z,35.65
2017-04-07T07:30:34.735Z,35.83
2017-04-07T07:31:35.313Z,35.94
2017-04-07T07:32:35.892Z,36.13
2017-04-07T07:33:36.470Z,35.65
2017-04-07T07:34:37.050Z,35.27
2017-04-07T07:35:37.629Z,35.65
2017-04-07T07:36:38.409Z,35.75
2017-04-07T07:37:38.988Z,35.28
2017-04-07T07:38:39.575Z,35.28
2017-04-07T07:39:40.161Z,35.28
2017-04-07T07:40:40.741Z,35.28
2017-04-07T07:41:41.320Z,35.38
2017-04-07T07:42:41.899Z,35.10
2017-04-07T07:43:42.479Z,35.28
2017-04-07T07:44:43.058Z,35.48
2017-04-07T07:45:43.638Z,35.10
2017-04-07T07:46:44.417Z,35.10
2017-04-07T07:47:44.994Z,35.10
2017-04-07T07:48:45.572Z,35.10
2017-04-07T07:49:46.158Z,35.21
2017-04-07T07:50:46.732Z,35.21
2017-04-07T07:51:47.311Z,35.11
2017-04-07T07:52:47.889Z,35.02
2017-04-07T07:53:48.470Z,34.92
2017-04-07T07:54:49.050Z,34.92
2017-04-07T07:55:49.629Z,34.73
2017-04-07T07:56:50.208Z,34.63
2017-04-07T07:57:50.788Z,34.73
2017-04-07T07:58:51.367Z,34.53
2017-04-07T07:59:51.946Z,34.36
2017-04-07T08:00:52.526Z,34.36
2017-04-07T08:01:53.107Z,34.55
2017-04-07T08:02:53.686Z,34.45
2017-04-07T08:03:54.265Z,34.27
2017-04-07T08:04:54.844Z,34.27
2017-04-07T08:05:55.425Z,33.98
2017-04-07T08:06:56.005Z,33.98
2017-04-07T08:07:56.583Z,34.27
2017-04-07T08:08:57.163Z,34.07
2017-04-07T08:09:57.744Z,33.98
2017-04-07T08:10:58.337Z,34.19
2017-04-07T08:11:58.918Z,34.09
2017-04-07T08:12:59.498Z,34.09
2017-04-07T08:14:00.077Z,33.51
2017-04-07T08:15:00.658Z,33.51
2017-04-07T08:16:01.239Z,33.51
2017-04-07T08:17:01.817Z,33.90
2017-04-07T08:18:02.398Z,34.09
2017-04-07T08:19:02.977Z,34.09
2017-04-07T08:20:03.560Z,34.19
2017-04-07T08:21:04.139Z,34.27
2017-04-07T08:22:04.720Z,34.36
2017-04-07T08:23:05.299Z,34.75
2017-04-07T08:24:05.880Z,34.45
2017-04-07T08:25:06.459Z,34.55
2017-04-07T08:26:07.040Z,34.65
2017-04-07T08:27:07.625Z,34.75
2017-04-07T08:28:08.199Z,34.65
2017-04-07T08:29:08.780Z,34.84
2017-04-07T08:30:09.360Z,34.65
2017-04-07T08:31:09.940Z,34.75
2017-04-07T08:32:10.720Z,34.65
2017-04-07T08:33:11.300Z,34.65
2017-04-07T08:34:11.879Z,34.45
2017-04-07T08:35:12.459Z,34.45
2017-04-07T08:36:13.039Z,34.75
2017-04-07T08:37:13.620Z,34.27
2017-04-07T08:38:14.201Z,34.57
2017-04-07T08:39:14.782Z,34.28
2017-04-07T08:40:15.363Z,34.19
2017-04-07T08:41:15.943Z,34.09
2017-04-07T08:42:16.542Z,33.99
2017-04-07T08:43:17.123Z,34.09
2017-04-07T08:44:17.703Z,34.09
2017-04-07T08:45:18.300Z,33.82
2017-04-07T08:46:18.880Z,33.72
2017-04-07T08:47:19.459Z,33.62
2017-04-07T08:48:20.040Z,33.34
2017-04-07T08:49:20.619Z,33.45
2017-04-07T08:50:21.201Z,33.16
2017-04-07T08:51:21.780Z,33.07
2017-04-07T08:52:22.364Z,32.78
2017-04-07T08:53:22.941Z,32.68
2017-04-07T08:54:23.538Z,32.79
2017-04-07T08:55:24.120Z,32.79
2017-04-07T08:56:24.702Z,32.41
2017-04-07T08:57:25.283Z,32.31
2017-04-07T08:58:25.864Z,32.12
2017-04-07T08:59:26.446Z,32.14
2017-04-07T09:00:27.025Z,32.14
2017-04-07T09:01:27.606Z,32.04
2017-04-07T09:02:28.188Z,32.04
2017-04-07T09:03:28.769Z,31.85
2017-04-07T09:04:29.351Z,31.95
2017-04-07T09:05:29.930Z,32.04
2017-04-07T09:06:30.511Z,31.65
2017-04-07T09:07:31.095Z,31.87
2017-04-07T09:08:31.676Z,32.06
2017-04-07T09:09:32.258Z,32.06
2017-04-07T09:10:32.839Z,31.87
2017-04-07T09:11:33.419Z,31.77
2017-04-07T09:12:34.202Z,31.77
2017-04-07T09:13:34.784Z,31.77
2017-04-07T09:14:35.364Z,31.38
2017-04-07T09:15:35.947Z,31.67
2017-04-07T09:16:36.531Z,31.38
2017-04-07T09:17:37.132Z,31.40
2017-04-07T09:18:37.711Z,31.40
2017-04-07T09:19:38.298Z,31.30
2017-04-07T09:20:38.874Z,31.21
2017-04-07T09:21:39.460Z,31.01
2017-04-07T09:22:40.243Z,30.73
2017-04-07T09:23:40.826Z,31.11
2017-04-07T09:24:41.408Z,31.21
2017-04-07T09:25:42.008Z,30.91
2017-04-07T09:26:42.589Z,30.82
2017-04-07T09:27:43.172Z,31.22
2017-04-07T09:28:43.756Z,30.93
2017-04-07T09:29:44.335Z,31.03
2017-04-07T09:30:44.919Z,30.64
2017-04-07T09:31:45.503Z,30.83
2017-04-07T09:32:46.086Z,30.83
2017-04-07T09:33:46.669Z,30.93
2017-04-07T09:34:47.252Z,30.74
2017-04-07T09:35:47.836Z,30.74
2017-04-07T09:36:48.418Z,30.76
2017-04-07T09:37:48.999Z,30.83
2017-04-07T09:38:49.582Z,30.83
2017-04-07T09:39:50.165Z,31.22
2017-04-07T09:40:50.748Z,30.83
2017-04-07T09:41:51.329Z,31.12
2017-04-07T09:42:51.910Z,31.41
2017-04-07T09:43:52.491Z,31.30
2017-04-07T09:44:53.074Z,31.88
2017-04-07T09:45:53.655Z,31.77
2017-04-07T09:46:54.237Z,32.06
2017-04-07T09:47:55.019Z,32.06
2017-04-07T09:48:55.601Z,32.90
2017-04-07T09:49:56.185Z,32.90
2017-04-07T09:50:56.766Z,32.71
2017-04-07T09:51:57.349Z,33.00
2017-04-07T09:52:57.934Z,32.81
2017-04-07T09:53:58.512Z,33.20
2017-04-07T09:54:59.092Z,33.08
2017-04-07T09:55:59.675Z,33.37
2017-04-07T09:57:00.257Z,33.47
2017-04-07T09:58:00.837Z,33.28
2017-04-07T09:59:01.417Z,33.47
2017-04-07T10:00:02.000Z,33.47
2017-04-07T10:01:02.581Z,33.18
2017-04-07T10:02:03.161Z,33.08
2017-04-07T10:03:03.942Z,33.47
2017-04-07T10:04:04.522Z,33.37
2017-04-07T10:05:05.104Z,33.47
2017-04-07T10:06:05.685Z,33.28
2017-04-07T10:07:06.267Z,33.37
2017-04-07T10:08:06.849Z,33.37
2017-04-07T10:09:07.429Z,33.10
2017-04-07T10:10:08.011Z,33.00
2017-04-07T10:11:08.595Z,32.98
2017-04-07T10:12:09.174Z,33.28
2017-04-07T10:13:09.756Z,32.98
2017-04-07T10:14:10.336Z,33.08
2017-04-07T10:15:10.919Z,33.18
2017-04-07T10:16:11.500Z,33.08
2017-04-07T10:17:12.082Z,33.20
2017-04-07T10:18:12.681Z,32.90
2017-04-07T10:19:13.263Z,33.00
2017-04-07T10:20:13.845Z,32.71
2017-04-07T10:21:14.429Z,32.81
2017-04-07T10:22:15.010Z,32.25
2017-04-07T10:23:15.594Z,32.06
2017-04-07T10:24:16.173Z,31.88
2017-04-07T10:25:16.755Z,31.49
2017-04-07T10:26:17.337Z,31.41
2017-04-07T10:27:17.938Z,31.22
2017-04-07T10:28:18.521Z,30.37
2017-04-07T10:29:19.122Z,30.66
2017-04-07T10:30:19.706Z,30.58
2017-04-07T10:31:20.310Z,30.58
2017-04-07T10:32:20.888Z,30.19
2017-04-07T10:33:21.472Z,30.19
2017-04-07T10:34:22.055Z,30.19
2017-04-07T10:35:22.640Z,30.67
2017-04-07T10:36:23.224Z,30.69
2017-04-07T10:37:23.809Z,30.01
2017-04-07T10:38:24.411Z,30.21
2017-04-07T10:39:24.995Z,30.11
2017-04-07T10:40:25.578Z,30.01
2017-04-07T10:41:26.159Z,30.30
2017-04-07T10:42:26.742Z,30.59
2017-04-07T10:43:27.325Z,30.67
2017-04-07T10:44:27.908Z,30.67
2017-04-07T10:45:28.490Z,30.58
2017-04-07T10:46:29.074Z,30.48
2017-04-07T10:47:29.657Z,30.58
2017-04-07T10:48:30.440Z,30.30
2017-04-07T10:49:31.026Z,30.30
2017-04-07T10:50:31.611Z,29.93
2017-04-07T10:51:32.193Z,29.35
2017-04-07T10:52:32.777Z,29.16
2017-04-07T10:53:33.361Z,29.17
2017-04-07T10:54:33.946Z,28.88
2017-04-07T10:55:34.529Z,28.78
2017-04-07T10:56:35.112Z,28.78
2017-04-07T10:57:35.695Z,28.78
2017-04-07T10:58:36.282Z,28.88
2017-04-07T10:59:36.881Z,29.09
2017-04-07T11:00:37.466Z,29.17
2017-04-07T11:01:38.063Z,29.27
2017-04-07T11:02:38.650Z,29.66
2017-04-07T11:03:39.232Z,29.66
2017-04-07T11:04:39.815Z,30.03
2017-04-07T11:05:40.397Z,30.12
2017-04-07T11:06:40.983Z,30.41
2017-04-07T11:07:41.566Z,30.30
2017-04-07T11:08:42.148Z,30.69
2017-04-07T11:09:42.730Z,30.21
2017-04-07T11:10:43.313Z,30.03
2017-04-07T11:11:43.895Z,29.83
2017-04-07T11:12:44.479Z,29.83
2017-04-07T11:13:45.279Z,29.55
2017-04-07T11:14:45.864Z,29.45
2017-04-07T11:15:46.450Z,29.25
2017-04-07T11:16:47.032Z,29.06
2017-04-07T11:17:47.616Z,28.88
2017-04-07T11:18:48.198Z,28.78
2017-04-07T11:19:48.784Z,28.59
2017-04-07T11:20:49.368Z,28.11
2017-04-07T11:21:49.952Z,28.31
2017-04-07T11:22:50.535Z,28.12
2017-04-07T11:23:51.322Z,28.12
2017-04-07T11:24:51.904Z,28.23
2017-04-07T11:25:52.488Z,28.23
2017-04-07T11:26:53.072Z,28.04
2017-04-07T11:27:53.657Z,27.85
2017-04-07T11:28:54.241Z,27.94
2017-04-07T11:29:54.828Z,28.04
2017-04-07T11:30:55.429Z,27.94
2017-04-07T11:31:56.013Z,27.85
2017-04-07T11:32:56.597Z,28.14
2017-04-07T11:33:57.183Z,28.14
2017-04-07T11:34:57.764Z,28.31
2017-04-07T11:35:58.348Z,28.61
2017-04-07T11:36:58.931Z,28.98
2017-04-07T11:37:59.516Z,29.27
2017-04-07T11:39:00.299Z,29.36
2017-04-07T11:40:00.882Z,29.17
2017-04-07T11:41:01.469Z,29.08
2017-04-07T11:42:02.052Z,29.08
2017-04-07T11:43:02.635Z,28.98
2017-04-07T11:44:03.219Z,28.98
2017-04-07T11:45:03.802Z,29.08
2017-04-07T11:46:04.384Z,29.35
2017-04-07T11:47:04.983Z,29.45
2017-04-07T11:48:05.566Z,29.55
2017-04-07T11:49:06.152Z,29.83
2017-04-07T11:50:06.753Z,30.01
2017-04-07T11:51:07.338Z,30.69
2017-04-07T11:52:07.921Z,30.77
2017-04-07T11:53:08.505Z,30.96
2017-04-07T11:54:09.289Z,30.77
2017-04-07T11:55:09.873Z,30.67
2017-04-07T11:56:10.460Z,30.77
2017-04-07T11:57:11.060Z,30.96
2017-04-07T11:58:11.644Z,30.48
2017-04-07T11:59:12.244Z,30.67
2017-04-07T12:00:12.829Z,30.77
2017-04-07T12:01:13.411Z,30.58
2017-04-07T12:02:13.993Z,30.11
2017-04-07T12:03:14.578Z,29.82
2017-04-07T12:04:15.163Z,29.45
2017-04-07T12:05:15.746Z,29.16
2017-04-07T12:06:16.330Z,29.08
2017-04-07T12:07:16.913Z,28.88
2017-04-07T12:08:17.499Z,28.88
2017-04-07T12:09:18.284Z,28.78
2017-04-07T12:10:18.870Z,28.50
2017-04-07T12:11:19.457Z,28.20
2017-04-07T12:12:20.059Z,28.03
2017-04-07T12:13:20.643Z,28.12
2017-04-07T12:14:21.229Z,28.22
2017-04-07T12:15:21.814Z,28.04
2017-04-07T12:16:22.399Z,27.85
2017-04-07T12:17:22.983Z,28.04
2017-04-07T12:18:23.572Z,27.86
2017-04-07T12:19:24.155Z,27.94
2017-04-07T12:20:24.740Z,28.14
2017-04-07T12:21:25.324Z,28.51
2017-04-07T12:22:25.908Z,28.89
2017-04-07T12:23:26.494Z,28.99
2017-04-07T12:24:27.077Z,28.98
2017-04-07T12:25:27.661Z,28.89
2017-04-07T12:26:28.244Z,28.80
2017-04-07T12:27:28.831Z,28.70
2017-04-07T12:28:29.414Z,28.51
2017-04-07T12:29:29.999Z,28.14
2017-04-07T12:30:30.589Z,28.04
2017-04-07T12:31:31.171Z,27.94
2017-04-07T12:32:31.757Z,28.04
2017-04-07T12:33:32.341Z,28.33
2017-04-07T12:34:32.922Z,28.43
2017-04-07T12:35:33.509Z,28.23
2017-04-07T12:36:34.092Z,28.14
2017-04-07T12:37:34.678Z,27.75
2017-04-07T12:38:35.262Z,27.86
2017-04-07T12:39:35.846Z,27.47
2017-04-07T12:40:36.432Z,27.76
2017-04-07T12:41:37.017Z,27.86
2017-04-07T12:42:37.601Z,27.28
2017-04-07T12:43:38.187Z,27.67
2017-04-07T12:44:38.974Z,27.67
2017-04-07T12:45:39.557Z,27.86
2017-04-07T12:46:40.141Z,28.14
2017-04-07T12:47:40.724Z,28.33
2017-04-07T12:48:41.311Z,28.52
2017-04-07T12:49:41.894Z,28.89
2017-04-07T12:50:42.494Z,29.19
2017-04-07T12:51:43.078Z,29.36
2017-04-07T12:52:43.662Z,29.46
2017-04-07T12:53:44.247Z,29.46
2017-04-07T12:54:44.831Z,29.66
2017-04-07T12:55:45.416Z,29.66
2017-04-07T12:56:46.018Z,29.75
2017-04-07T12:57:46.601Z,29.75
2017-04-07T12:58:47.184Z,29.56
2017-04-07T12:59:47.970Z,29.56